createdAt,value
2019-02-12T00:04:19.120Z,1.10
2019-02-12T00:09:05.227Z,1.10
2019-02-12T00:13:49.852Z,1.10
2019-02-12T00:18:34.670Z,1.10
2019-02-12T00:23:19.452Z,1.00
2019-02-12T00:28:04.167Z,1.00
2019-02-12T00:32:49.019Z,1.00
2019-02-12T00:37:33.538Z,1.00
2019-02-12T00:42:18.399Z,0.90
2019-02-12T00:47:03.064Z,1.00
2019-02-12T00:51:47.864Z,0.90
2019-02-12T00:56:32.955Z,0.90
2019-02-12T01:01:17.870Z,0.90
2019-02-12T01:06:02.515Z,0.90
2019-02-12T01:10:47.149Z,0.90
2019-02-12T01:15:31.875Z,0.70
2019-02-12T01:20:16.610Z,0.90
2019-02-12T01:25:01.204Z,0.90
2019-02-12T01:29:46.212Z,1.00
2019-02-12T01:34:30.880Z,1.10
2019-02-12T01:39:15.509Z,1.10
2019-02-12T01:44:00.070Z,1.00
2019-02-12T01:48:44.703Z,1.00
2019-02-12T01:53:29.452Z,1.00
2019-02-12T01:58:13.989Z,1.10
2019-02-12T02:02:58.505Z,1.10
2019-02-12T02:07:43.063Z,1.00
2019-02-12T02:12:27.542Z,1.00
2019-02-12T02:17:12.047Z,1.10
2019-02-12T02:21:56.660Z,1.10
2019-02-12T02:26:41.278Z,1.20
2019-02-12T02:31:25.785Z,1.30
2019-02-12T02:36:10.283Z,1.30
2019-02-12T02:40:54.767Z,1.30
2019-02-12T02:45:39.346Z,1.30
2019-02-12T02:50:23.891Z,1.20
2019-02-12T02:55:08.668Z,1.30
2019-02-12T02:59:53.232Z,1.30
2019-02-12T03:04:37.780Z,1.20
2019-02-12T03:09:22.298Z,1.10
2019-02-12T03:14:07.123Z,1.10
2019-02-12T03:18:51.957Z,1.10
2019-02-12T03:23:36.785Z,1.20
2019-02-12T03:28:21.772Z,1.00
2019-02-12T03:33:06.279Z,0.90
2019-02-12T03:37:50.951Z,0.90
2019-02-12T03:42:35.519Z,0.90
2019-02-12T03:47:20.122Z,1.00
2019-02-12T03:52:12.636Z,1.10
2019-02-12T03:56:51.027Z,1.10
2019-02-12T04:01:35.507Z,1.10
2019-02-12T04:06:19.977Z,0.90
2019-02-12T04:11:04.489Z,0.70
2019-02-12T04:15:49.075Z,0.70
2019-02-12T04:20:33.731Z,0.70
2019-02-12T04:25:18.225Z,0.70
2019-02-12T04:30:02.924Z,0.60
2019-02-12T04:34:47.465Z,0.50
2019-02-12T04:39:31.942Z,0.40
2019-02-12T04:44:16.453Z,0.50
2019-02-12T04:49:01.049Z,0.60
2019-02-12T04:53:45.676Z,0.70
2019-02-12T04:58:30.240Z,0.70
2019-02-12T05:03:14.819Z,0.80
2019-02-12T05:07:59.297Z,0.90
2019-02-12T05:12:43.890Z,0.90
2019-02-12T05:17:28.376Z,0.90
2019-02-12T05:22:13.003Z,0.90
2019-02-12T05:26:57.557Z,0.90
2019-02-12T05:31:42.049Z,0.80
2019-02-12T05:36:26.672Z,0.80
2019-02-12T05:41:11.274Z,0.70
2019-02-12T05:45:55.780Z,0.80
2019-02-12T05:50:40.359Z,0.80
2019-02-12T05:55:24.983Z,0.80
2019-02-12T06:00:12.200Z,0.80
2019-02-12T06:04:57.045Z,0.70
2019-02-12T06:09:41.700Z,0.80
2019-02-12T06:14:26.610Z,0.80
2019-02-12T06:19:11.644Z,0.80
2019-02-12T06:23:56.238Z,0.80
2019-02-12T06:28:41.183Z,0.70
2019-02-12T06:33:25.787Z,0.60
2019-02-12T06:38:10.314Z,0.70
2019-02-12T06:42:55.323Z,0.90
2019-02-12T06:47:39.876Z,1.00
2019-02-12T06:52:24.595Z,1.00
2019-02-12T06:57:09.353Z,1.10
2019-02-12T07:02:30.680Z,1.10
2019-02-12T07:07:46.479Z,1.20
2019-02-12T07:13:14.188Z,1.20
2019-02-12T07:18:44.365Z,1.20
2019-02-12T07:23:59.813Z,1.20
2019-02-12T07:29:16.163Z,1.20
2019-02-12T07:34:38.916Z,1.20
2019-02-12T07:40:00.384Z,1.20
2019-02-12T07:45:15.246Z,1.30
2019-02-12T07:50:36.782Z,1.30
2019-02-12T07:55:47.689Z,1.30
2019-02-12T08:00:56.598Z,1.30
2019-02-12T08:05:57.161Z,1.40
2019-02-12T08:11:18.799Z,1.40
2019-02-12T08:16:13.957Z,1.50
2019-02-12T08:21:22.051Z,1.60
2019-02-12T08:26:15.676Z,1.60
2019-02-12T08:31:31.405Z,1.60
2019-02-12T08:36:56.901Z,1.70
2019-02-12T08:42:20.440Z,1.40
2019-02-12T08:47:34.790Z,1.60
2019-02-12T08:53:24.803Z,1.70
2019-02-12T08:58:50.049Z,1.90
2019-02-12T09:03:45.871Z,1.80
2019-02-12T09:09:38.767Z,1.80
2019-02-12T09:14:42.566Z,2.00
2019-02-12T09:20:13.377Z,2.00
2019-02-12T09:25:37.379Z,2.00
2019-02-12T09:30:39.050Z,2.00
2019-02-12T09:36:13.941Z,1.90
2019-02-12T09:41:38.847Z,2.10
2019-02-12T09:46:48.985Z,2.30
2019-02-12T09:52:15.269Z,2.50
2019-02-12T09:57:24.086Z,2.60
2019-02-12T10:02:39.879Z,2.70
2019-02-12T10:08:20.947Z,2.90
2019-02-12T10:13:37.434Z,3.00
2019-02-12T10:18:53.149Z,2.90
2019-02-12T10:24:31.072Z,3.10
2019-02-12T10:30:08.719Z,3.00
2019-02-12T10:34:53.542Z,2.90
2019-02-12T10:39:38.123Z,2.90
2019-02-12T10:44:22.765Z,3.10
2019-02-12T10:49:07.446Z,3.00
2019-02-12T10:53:51.944Z,3.00
2019-02-12T10:58:36.431Z,2.70
2019-02-12T11:03:21.004Z,2.70
2019-02-12T11:08:05.601Z,2.90
2019-02-12T11:12:50.115Z,3.20
2019-02-12T11:17:34.985Z,3.20
2019-02-12T11:22:19.645Z,3.40
2019-02-12T11:27:04.179Z,3.60
2019-02-12T11:31:48.901Z,3.70
2019-02-12T11:36:33.787Z,3.60
2019-02-12T11:41:18.337Z,3.60
2019-02-12T11:46:03.964Z,3.40
2019-02-12T11:50:48.603Z,3.20
2019-02-12T11:55:33.372Z,3.00
2019-02-12T12:00:21.913Z,2.70
2019-02-12T12:05:07.181Z,2.60
2019-02-12T12:09:51.760Z,2.20
2019-02-12T12:14:36.292Z,1.90
2019-02-12T12:19:21.034Z,2.00
2019-02-12T12:24:05.752Z,2.20
2019-02-12T12:28:50.442Z,2.20
2019-02-12T12:33:35.170Z,2.30
2019-02-12T12:38:19.777Z,2.20
2019-02-12T12:43:04.778Z,2.50
2019-02-12T12:47:49.396Z,2.70
2019-02-12T12:52:33.945Z,2.70
2019-02-12T12:57:18.680Z,2.80
2019-02-12T13:02:03.185Z,3.00
2019-02-12T13:06:47.925Z,3.00
2019-02-12T13:11:32.740Z,2.80
2019-02-12T13:16:17.332Z,2.40
2019-02-12T13:21:01.932Z,2.10
2019-02-12T13:25:46.567Z,1.80
2019-02-12T13:30:31.535Z,1.70
2019-02-12T13:35:16.182Z,1.90
2019-02-12T13:40:00.875Z,1.90
2019-02-12T13:44:48.158Z,2.10
2019-02-12T13:49:33.084Z,2.40
2019-02-12T13:54:17.985Z,2.60
2019-02-12T13:59:02.622Z,2.70
2019-02-12T14:03:47.201Z,2.80
2019-02-12T14:08:31.935Z,2.80
2019-02-12T14:13:16.546Z,2.80
2019-02-12T14:18:01.284Z,2.80
2019-02-12T14:22:45.803Z,2.90
2019-02-12T14:27:30.384Z,3.00
2019-02-12T14:32:15.104Z,3.10
2019-02-12T14:36:59.781Z,3.10
2019-02-12T14:41:44.647Z,3.10
2019-02-12T14:46:29.287Z,3.10
2019-02-12T14:51:13.744Z,3.00
2019-02-12T14:55:58.574Z,3.10
2019-02-12T15:00:43.078Z,3.10
2019-02-12T15:05:27.835Z,3.30
2019-02-12T15:10:12.738Z,3.40
2019-02-12T15:15:01.622Z,3.50
2019-02-12T15:19:46.229Z,3.40
2019-02-12T15:24:30.921Z,3.00
2019-02-12T15:29:15.642Z,2.70
2019-02-12T15:34:00.314Z,2.50
2019-02-12T15:38:44.849Z,2.30
2019-02-12T15:43:29.490Z,2.30
2019-02-12T15:48:14.071Z,2.20
2019-02-12T15:52:58.594Z,2.20
2019-02-12T15:57:45.805Z,2.20
2019-02-12T16:02:29.803Z,2.20
2019-02-12T16:07:14.702Z,2.00
2019-02-12T16:11:59.333Z,1.90
2019-02-12T16:16:53.902Z,1.80
2019-02-12T16:21:39.117Z,1.70
2019-02-12T16:26:55.070Z,1.70
2019-02-12T16:31:39.978Z,1.70
2019-02-12T16:36:36.171Z,1.70
2019-02-12T16:41:22.423Z,1.80
2019-02-12T16:46:15.400Z,1.70
2019-02-12T16:55:58.293Z,1.40
2019-02-12T17:00:45.419Z,1.30
2019-02-12T17:05:35.008Z,1.30
2019-02-12T17:10:22.217Z,1.30
2019-02-12T17:15:08.432Z,1.20
2019-02-12T17:19:53.410Z,1.20
2019-02-12T17:24:43.473Z,1.20
2019-02-12T17:29:28.174Z,1.30
2019-02-12T17:34:12.960Z,1.10
2019-02-12T17:38:57.513Z,1.10
2019-02-12T17:43:42.126Z,1.10
2019-02-12T17:48:26.773Z,1.10
2019-02-12T17:53:12.659Z,1.10
2019-02-12T17:57:57.419Z,1.20
2019-02-12T18:02:42.095Z,1.30
2019-02-12T18:07:26.686Z,1.50
2019-02-12T18:12:11.312Z,1.50
2019-02-12T18:16:56.028Z,1.50
2019-02-12T18:21:40.633Z,1.50
2019-02-12T18:26:32.923Z,1.50
2019-02-12T18:31:11.896Z,1.40
2019-02-12T18:36:00.029Z,1.50
2019-02-12T18:40:44.382Z,1.40
2019-02-12T18:45:40.965Z,1.40
2019-02-12T18:50:24.606Z,1.30
2019-02-12T18:55:10.572Z,1.30
2019-02-12T18:59:55.321Z,1.40
2019-02-12T19:04:40.042Z,1.40
2019-02-12T19:09:24.773Z,1.40
2019-02-12T19:14:10.932Z,1.50
2019-02-12T19:18:55.564Z,1.50
2019-02-12T19:23:40.200Z,1.60
2019-02-12T19:28:24.914Z,1.60
2019-02-12T19:33:09.631Z,1.70
2019-02-12T19:37:55.249Z,1.80
2019-02-12T19:42:39.998Z,1.80
2019-02-12T19:47:24.667Z,1.90
2019-02-12T19:52:09.335Z,1.90
2019-02-12T19:56:58.412Z,1.90
2019-02-12T20:01:40.725Z,1.90
2019-02-12T20:06:25.487Z,1.90
2019-02-12T20:11:10.202Z,1.90
2019-02-12T20:15:55.024Z,1.90
2019-02-12T20:20:39.961Z,1.80
2019-02-12T20:25:24.621Z,1.70
2019-02-12T20:30:11.343Z,1.70
2019-02-12T20:34:58.028Z,1.70
2019-02-12T20:39:42.791Z,1.60
2019-02-12T20:44:47.195Z,1.60
2019-02-12T20:49:31.687Z,1.50
2019-02-12T20:54:16.550Z,1.50
2019-02-12T20:59:01.294Z,1.60
2019-02-12T21:03:45.992Z,1.50
2019-02-12T21:09:02.310Z,1.50
2019-02-12T21:13:46.911Z,1.60
2019-02-12T21:18:32.274Z,1.60
2019-02-12T21:23:16.823Z,1.60
2019-02-12T21:28:01.492Z,1.60
2019-02-12T21:32:46.191Z,1.50
2019-02-12T21:37:30.748Z,1.50
2019-02-12T21:42:15.287Z,1.50
2019-02-12T21:47:00.195Z,1.40
2019-02-12T21:51:44.824Z,1.40
2019-02-12T21:56:29.664Z,1.40
2019-02-12T22:01:14.191Z,1.40
2019-02-12T22:05:58.933Z,1.40
2019-02-12T22:10:46.414Z,1.40
2019-02-12T22:15:29.964Z,1.50
2019-02-12T22:20:16.073Z,1.50
2019-02-12T22:25:00.662Z,1.60
2019-02-12T22:29:45.381Z,1.70
2019-02-12T22:34:30.017Z,1.80
2019-02-12T22:39:14.644Z,1.80
2019-02-12T22:43:59.280Z,1.90
2019-02-12T22:48:45.488Z,1.90
2019-02-12T22:53:30.089Z,1.90
2019-02-12T22:58:14.764Z,1.90
2019-02-12T23:02:59.546Z,2.00
2019-02-12T23:07:44.116Z,2.00
2019-02-12T23:12:28.654Z,2.00
2019-02-12T23:17:13.275Z,2.00
2019-02-12T23:21:58.126Z,2.00
2019-02-12T23:26:42.848Z,2.10
2019-02-12T23:31:27.378Z,2.10
2019-02-12T23:36:11.867Z,2.10
2019-02-12T23:40:56.517Z,2.10
2019-02-12T23:45:41.061Z,2.20
2019-02-12T23:50:25.611Z,2.20
2019-02-12T23:55:10.472Z,2.20
2019-02-12T23:59:55.004Z,2.10
